sensor_id;sensor_type;location;lat;lon;timestamp;temperature;humidity
21267;DHT22;10791;53.108;18.326;2023-11-19T00:01:36;0.90;99.90
21267;DHT22;10791;53.108;18.326;2023-11-19T00:06:41;0.80;99.90
21267;DHT22;10791;53.108;18.326;2023-11-19T00:11:44;0.70;99.90
21267;DHT22;10791;53.108;18.326;2023-11-19T00:16:56;0.60;99.90
21267;DHT22;10791;53.108;18.326;2023-11-19T00:21:59;0.50;99.90
21267;DHT22;10791;53.108;18.326;2023-11-19T00:27:05;0.40;99.90
21267;DHT22;10791;53.108;18.326;2023-11-19T00:32:10;0.20;99.90
21267;DHT22;10791;53.108;18.326;2023-11-19T00:37:15;0.20;99.90
21267;DHT22;10791;53.108;18.326;2023-11-19T00:42:18;0.00;99.90
21267;DHT22;10791;53.108;18.326;2023-11-19T00:47:21;-0.10;99.90
21267;DHT22;10791;53.108;18.326;2023-11-19T00:52:24;-0.20;99.90
21267;DHT22;10791;53.108;18.326;2023-11-19T00:57:28;-0.20;99.90
21267;DHT22;10791;53.108;18.326;2023-11-19T01:02:31;-0.30;99.90
21267;DHT22;10791;53.108;18.326;2023-11-19T01:07:34;-0.30;99.90
21267;DHT22;10791;53.108;18.326;2023-11-19T01:12:37;-0.30;99.90
21267;DHT22;10791;53.108;18.326;2023-11-19T01:17:40;-0.50;99.90
21267;DHT22;10791;53.108;18.326;2023-11-19T01:22:55;-0.50;99.90
21267;DHT22;10791;53.108;18.326;2023-11-19T01:27:59;-0.60;99.90
21267;DHT22;10791;53.108;18.326;2023-11-19T01:33:03;-0.60;99.90
21267;DHT22;10791;53.108;18.326;2023-11-19T01:38:06;-0.80;99.90
21267;DHT22;10791;53.108;18.326;2023-11-19T01:43:11;-0.90;99.90
21267;DHT22;10791;53.108;18.326;2023-11-19T01:48:14;-1.00;99.90
21267;DHT22;10791;53.108;18.326;2023-11-19T01:53:18;-0.90;99.90
21267;DHT22;10791;53.108;18.326;2023-11-19T01:58:22;-0.90;99.90
21267;DHT22;10791;53.108;18.326;2023-11-19T02:03:25;-1.10;99.90
21267;DHT22;10791;53.108;18.326;2023-11-19T02:08:32;-1.20;99.90
21267;DHT22;10791;53.108;18.326;2023-11-19T02:13:37;-1.30;99.90
21267;DHT22;10791;53.108;18.326;2023-11-19T02:18:40;-1.30;99.90
21267;DHT22;10791;53.108;18.326;2023-11-19T02:23:44;-1.40;99.90
21267;DHT22;10791;53.108;18.326;2023-11-19T02:28:47;-1.40;99.90
21267;DHT22;10791;53.108;18.326;2023-11-19T02:33:51;-1.40;99.90
21267;DHT22;10791;53.108;18.326;2023-11-19T02:38:55;-1.40;99.90
21267;DHT22;10791;53.108;18.326;2023-11-19T02:43:58;-1.50;99.90
21267;DHT22;10791;53.108;18.326;2023-11-19T02:49:01;-1.50;99.90
21267;DHT22;10791;53.108;18.326;2023-11-19T02:54:04;-1.50;99.90
21267;DHT22;10791;53.108;18.326;2023-11-19T02:59:07;-1.50;99.90
21267;DHT22;10791;53.108;18.326;2023-11-19T03:04:18;-1.50;99.90
21267;DHT22;10791;53.108;18.326;2023-11-19T03:09:23;-1.50;99.90
21267;DHT22;10791;53.108;18.326;2023-11-19T03:14:27;-1.50;99.90
21267;DHT22;10791;53.108;18.326;2023-11-19T03:19:30;-1.50;99.90
21267;DHT22;10791;53.108;18.326;2023-11-19T03:24:34;-1.50;99.90
21267;DHT22;10791;53.108;18.326;2023-11-19T03:29:37;-1.40;99.90
21267;DHT22;10791;53.108;18.326;2023-11-19T03:34:41;-1.30;99.90
21267;DHT22;10791;53.108;18.326;2023-11-19T03:39:44;-1.20;99.90
21267;DHT22;10791;53.108;18.326;2023-11-19T03:44:47;-1.10;99.90
21267;DHT22;10791;53.108;18.326;2023-11-19T03:49:52;-1.10;99.90
21267;DHT22;10791;53.108;18.326;2023-11-19T03:54:55;-1.00;99.90
21267;DHT22;10791;53.108;18.326;2023-11-19T04:00:00;-1.00;99.90
21267;DHT22;10791;53.108;18.326;2023-11-19T04:05:09;-0.90;99.90
21267;DHT22;10791;53.108;18.326;2023-11-19T04:10:12;-0.90;99.90
21267;DHT22;10791;53.108;18.326;2023-11-19T04:15:17;-0.90;99.90
21267;DHT22;10791;53.108;18.326;2023-11-19T04:20:20;-0.90;99.90
21267;DHT22;10791;53.108;18.326;2023-11-19T04:25:24;-0.80;99.90
21267;DHT22;10791;53.108;18.326;2023-11-19T04:30:29;-0.70;99.90
21267;DHT22;10791;53.108;18.326;2023-11-19T04:35:34;-0.60;99.90
21267;DHT22;10791;53.108;18.326;2023-11-19T04:40:38;-0.60;99.90
21267;DHT22;10791;53.108;18.326;2023-11-19T04:45:42;-0.60;99.90
21267;DHT22;10791;53.108;18.326;2023-11-19T04:50:45;-0.60;99.90
21267;DHT22;10791;53.108;18.326;2023-11-19T04:55:48;-0.50;99.90
21267;DHT22;10791;53.108;18.326;2023-11-19T05:00:51;-0.50;99.90
21267;DHT22;10791;53.108;18.326;2023-11-19T05:05:56;-0.40;99.90
21267;DHT22;10791;53.108;18.326;2023-11-19T05:11:00;-0.40;99.90
21267;DHT22;10791;53.108;18.326;2023-11-19T05:16:03;-0.40;99.90
21267;DHT22;10791;53.108;18.326;2023-11-19T05:21:07;-0.50;99.90
21267;DHT22;10791;53.108;18.326;2023-11-19T05:26:18;-0.50;99.90
21267;DHT22;10791;53.108;18.326;2023-11-19T05:31:21;-0.50;99.90
21267;DHT22;10791;53.108;18.326;2023-11-19T05:36:25;-0.40;99.90
21267;DHT22;10791;53.108;18.326;2023-11-19T05:41:28;-0.30;99.90
21267;DHT22;10791;53.108;18.326;2023-11-19T05:46:31;-0.20;99.90
21267;DHT22;10791;53.108;18.326;2023-11-19T05:51:39;-0.30;99.90
21267;DHT22;10791;53.108;18.326;2023-11-19T05:56:47;-0.20;99.90
21267;DHT22;10791;53.108;18.326;2023-11-19T06:01:52;-0.10;99.90
21267;DHT22;10791;53.108;18.326;2023-11-19T06:06:55;-0.10;99.90
21267;DHT22;10791;53.108;18.326;2023-11-19T06:11:58;0.00;99.90
21267;DHT22;10791;53.108;18.326;2023-11-19T06:17:01;0.00;99.90
21267;DHT22;10791;53.108;18.326;2023-11-19T06:22:05;0.00;99.90
21267;DHT22;10791;53.108;18.326;2023-11-19T06:27:08;0.00;99.90
21267;DHT22;10791;53.108;18.326;2023-11-19T06:32:12;0.00;99.90
21267;DHT22;10791;53.108;18.326;2023-11-19T06:37:17;0.10;99.90
21267;DHT22;10791;53.108;18.326;2023-11-19T06:42:20;0.10;99.90
21267;DHT22;10791;53.108;18.326;2023-11-19T06:47:27;0.10;99.90
21267;DHT22;10791;53.108;18.326;2023-11-19T06:52:31;0.10;99.90
21267;DHT22;10791;53.108;18.326;2023-11-19T06:57:34;0.10;99.90
21267;DHT22;10791;53.108;18.326;2023-11-19T07:02:38;0.10;99.90
21267;DHT22;10791;53.108;18.326;2023-11-19T07:07:42;0.10;99.90
21267;DHT22;10791;53.108;18.326;2023-11-19T07:12:45;0.10;99.90
21267;DHT22;10791;53.108;18.326;2023-11-19T07:17:48;0.10;99.90
21267;DHT22;10791;53.108;18.326;2023-11-19T07:23:04;0.20;99.90
21267;DHT22;10791;53.108;18.326;2023-11-19T07:28:07;0.30;99.90
21267;DHT22;10791;53.108;18.326;2023-11-19T07:33:11;0.40;99.90
21267;DHT22;10791;53.108;18.326;2023-11-19T07:38:15;0.30;99.90
21267;DHT22;10791;53.108;18.326;2023-11-19T07:43:19;0.40;99.90
21267;DHT22;10791;53.108;18.326;2023-11-19T07:48:23;0.40;99.90
21267;DHT22;10791;53.108;18.326;2023-11-19T07:53:27;0.40;99.90
21267;DHT22;10791;53.108;18.326;2023-11-19T07:58:31;0.40;99.90
21267;DHT22;10791;53.108;18.326;2023-11-19T08:03:34;0.40;99.90
21267;DHT22;10791;53.108;18.326;2023-11-19T08:08:38;0.40;99.90
21267;DHT22;10791;53.108;18.326;2023-11-19T08:13:42;0.50;99.90
21267;DHT22;10791;53.108;18.326;2023-11-19T08:18:46;0.40;99.90
21267;DHT22;10791;53.108;18.326;2023-11-19T08:23:50;0.50;99.90
21267;DHT22;10791;53.108;18.326;2023-11-19T08:28:53;0.50;99.90
21267;DHT22;10791;53.108;18.326;2023-11-19T08:33:57;0.50;99.90
21267;DHT22;10791;53.108;18.326;2023-11-19T08:39:00;0.60;99.90
21267;DHT22;10791;53.108;18.326;2023-11-19T08:44:04;0.60;99.90
21267;DHT22;10791;53.108;18.326;2023-11-19T08:49:08;0.70;99.90
21267;DHT22;10791;53.108;18.326;2023-11-19T08:54:11;0.80;99.90
21267;DHT22;10791;53.108;18.326;2023-11-19T08:59:16;0.80;99.90
21267;DHT22;10791;53.108;18.326;2023-11-19T09:04:20;0.90;99.90
21267;DHT22;10791;53.108;18.326;2023-11-19T09:09:26;1.00;99.90
21267;DHT22;10791;53.108;18.326;2023-11-19T09:14:30;1.00;99.90
21267;DHT22;10791;53.108;18.326;2023-11-19T09:19:34;1.10;99.90
21267;DHT22;10791;53.108;18.326;2023-11-19T09:24:39;1.10;99.90
21267;DHT22;10791;53.108;18.326;2023-11-19T09:29:42;1.20;99.90
21267;DHT22;10791;53.108;18.326;2023-11-19T09:34:46;1.30;99.90
21267;DHT22;10791;53.108;18.326;2023-11-19T09:39:50;1.40;99.90
21267;DHT22;10791;53.108;18.326;2023-11-19T09:44:54;1.50;99.90
21267;DHT22;10791;53.108;18.326;2023-11-19T09:49:59;1.50;99.90
21267;DHT22;10791;53.108;18.326;2023-11-19T09:55:03;1.50;99.90
21267;DHT22;10791;53.108;18.326;2023-11-19T10:00:07;1.50;99.90
21267;DHT22;10791;53.108;18.326;2023-11-19T10:05:13;1.60;99.90
21267;DHT22;10791;53.108;18.326;2023-11-19T10:10:18;1.70;99.90
21267;DHT22;10791;53.108;18.326;2023-11-19T10:15:25;1.70;99.90
21267;DHT22;10791;53.108;18.326;2023-11-19T10:20:36;1.70;99.90
21267;DHT22;10791;53.108;18.326;2023-11-19T10:25:39;1.70;99.90
21267;DHT22;10791;53.108;18.326;2023-11-19T10:30:43;1.70;99.90
21267;DHT22;10791;53.108;18.326;2023-11-19T10:35:57;1.70;99.90
21267;DHT22;10791;53.108;18.326;2023-11-19T10:41:04;1.80;99.90
21267;DHT22;10791;53.108;18.326;2023-11-19T10:46:12;1.80;99.90
21267;DHT22;10791;53.108;18.326;2023-11-19T10:51:19;1.80;99.90
21267;DHT22;10791;53.108;18.326;2023-11-19T10:56:30;1.70;99.90
21267;DHT22;10791;53.108;18.326;2023-11-19T11:01:39;1.70;99.90
21267;DHT22;10791;53.108;18.326;2023-11-19T11:06:47;1.80;99.90
21267;DHT22;10791;53.108;18.326;2023-11-19T11:11:51;1.80;99.90
21267;DHT22;10791;53.108;18.326;2023-11-19T11:16:56;1.70;99.90
21267;DHT22;10791;53.108;18.326;2023-11-19T11:22:03;1.60;99.90
21267;DHT22;10791;53.108;18.326;2023-11-19T11:27:41;1.50;99.90
21267;DHT22;10791;53.108;18.326;2023-11-19T11:33:02;1.50;99.90
21267;DHT22;10791;53.108;18.326;2023-11-19T11:38:09;1.40;99.90
21267;DHT22;10791;53.108;18.326;2023-11-19T11:43:43;1.40;99.90
21267;DHT22;10791;53.108;18.326;2023-11-19T11:48:48;1.30;99.90
21267;DHT22;10791;53.108;18.326;2023-11-19T11:53:53;1.20;99.90
21267;DHT22;10791;53.108;18.326;2023-11-19T11:58:57;1.20;99.90
21267;DHT22;10791;53.108;18.326;2023-11-19T12:04:05;1.10;99.90
21267;DHT22;10791;53.108;18.326;2023-11-19T12:09:09;1.10;99.90
21267;DHT22;10791;53.108;18.326;2023-11-19T12:14:12;1.00;99.90
21267;DHT22;10791;53.108;18.326;2023-11-19T12:19:17;1.00;99.90
21267;DHT22;10791;53.108;18.326;2023-11-19T12:24:22;1.00;99.90
21267;DHT22;10791;53.108;18.326;2023-11-19T12:29:25;0.90;99.90
21267;DHT22;10791;53.108;18.326;2023-11-19T12:34:29;0.90;99.90
21267;DHT22;10791;53.108;18.326;2023-11-19T12:39:33;0.90;99.90
21267;DHT22;10791;53.108;18.326;2023-11-19T12:44:37;0.90;99.90
21267;DHT22;10791;53.108;18.326;2023-11-19T12:49:41;0.80;99.90
21267;DHT22;10791;53.108;18.326;2023-11-19T12:54:44;0.90;99.90
21267;DHT22;10791;53.108;18.326;2023-11-19T12:59:56;0.90;99.90
21267;DHT22;10791;53.108;18.326;2023-11-19T13:05:23;0.90;99.90
21267;DHT22;10791;53.108;18.326;2023-11-19T13:10:28;1.00;99.90
21267;DHT22;10791;53.108;18.326;2023-11-19T13:15:32;1.00;99.90
21267;DHT22;10791;53.108;18.326;2023-11-19T13:20:37;1.00;99.90
21267;DHT22;10791;53.108;18.326;2023-11-19T13:25:42;0.90;99.90
21267;DHT22;10791;53.108;18.326;2023-11-19T13:30:47;0.80;99.90
21267;DHT22;10791;53.108;18.326;2023-11-19T13:35:51;0.80;99.90
21267;DHT22;10791;53.108;18.326;2023-11-19T13:40:56;0.80;99.90
21267;DHT22;10791;53.108;18.326;2023-11-19T13:45:59;0.80;99.90
21267;DHT22;10791;53.108;18.326;2023-11-19T13:51:03;0.80;99.90
21267;DHT22;10791;53.108;18.326;2023-11-19T13:56:08;0.80;99.90
21267;DHT22;10791;53.108;18.326;2023-11-19T14:01:12;0.80;99.90
21267;DHT22;10791;53.108;18.326;2023-11-19T14:06:17;0.80;99.90
21267;DHT22;10791;53.108;18.326;2023-11-19T14:11:21;0.80;99.90
21267;DHT22;10791;53.108;18.326;2023-11-19T14:16:28;0.80;99.90
21267;DHT22;10791;53.108;18.326;2023-11-19T14:21:33;0.90;99.90
21267;DHT22;10791;53.108;18.326;2023-11-19T14:26:37;0.80;99.90
21267;DHT22;10791;53.108;18.326;2023-11-19T14:31:41;0.80;99.90
21267;DHT22;10791;53.108;18.326;2023-11-19T14:36:46;0.90;99.90
21267;DHT22;10791;53.108;18.326;2023-11-19T14:41:51;0.80;99.90
21267;DHT22;10791;53.108;18.326;2023-11-19T14:46:56;0.80;99.90
21267;DHT22;10791;53.108;18.326;2023-11-19T14:52:04;0.90;99.90
21267;DHT22;10791;53.108;18.326;2023-11-19T14:57:13;0.80;99.90
21267;DHT22;10791;53.108;18.326;2023-11-19T15:02:18;0.80;99.90
21267;DHT22;10791;53.108;18.326;2023-11-19T15:07:22;0.90;99.90
21267;DHT22;10791;53.108;18.326;2023-11-19T15:12:28;0.90;99.90
21267;DHT22;10791;53.108;18.326;2023-11-19T15:17:32;0.90;99.90
21267;DHT22;10791;53.108;18.326;2023-11-19T15:22:36;0.90;99.90
21267;DHT22;10791;53.108;18.326;2023-11-19T15:27:40;0.90;99.90
21267;DHT22;10791;53.108;18.326;2023-11-19T15:32:44;0.90;99.90
21267;DHT22;10791;53.108;18.326;2023-11-19T15:37:49;0.90;99.90
21267;DHT22;10791;53.108;18.326;2023-11-19T15:42:55;0.90;99.90
21267;DHT22;10791;53.108;18.326;2023-11-19T15:48:04;0.90;99.90
21267;DHT22;10791;53.108;18.326;2023-11-19T15:53:10;0.90;99.90
21267;DHT22;10791;53.108;18.326;2023-11-19T15:58:16;0.90;99.90
21267;DHT22;10791;53.108;18.326;2023-11-19T16:03:21;0.90;99.90
21267;DHT22;10791;53.108;18.326;2023-11-19T16:08:27;0.90;99.90
21267;DHT22;10791;53.108;18.326;2023-11-19T16:13:32;0.90;99.90
21267;DHT22;10791;53.108;18.326;2023-11-19T16:18:35;0.90;99.90
21267;DHT22;10791;53.108;18.326;2023-11-19T16:23:40;0.90;99.90
21267;DHT22;10791;53.108;18.326;2023-11-19T16:28:45;0.90;99.90
21267;DHT22;10791;53.108;18.326;2023-11-19T16:33:51;0.90;99.90
21267;DHT22;10791;53.108;18.326;2023-11-19T16:38:55;1.00;99.90
21267;DHT22;10791;53.108;18.326;2023-11-19T16:44:18;1.00;99.90
21267;DHT22;10791;53.108;18.326;2023-11-19T16:49:22;1.00;99.90
21267;DHT22;10791;53.108;18.326;2023-11-19T16:54:26;1.10;99.90
21267;DHT22;10791;53.108;18.326;2023-11-19T16:59:30;1.00;99.90
21267;DHT22;10791;53.108;18.326;2023-11-19T17:04:34;1.00;99.90
21267;DHT22;10791;53.108;18.326;2023-11-19T17:09:38;1.00;99.90
21267;DHT22;10791;53.108;18.326;2023-11-19T17:14:45;1.00;99.90
21267;DHT22;10791;53.108;18.326;2023-11-19T17:19:50;1.00;99.90
21267;DHT22;10791;53.108;18.326;2023-11-19T17:24:54;1.10;99.90
21267;DHT22;10791;53.108;18.326;2023-11-19T17:29:58;1.10;99.90
21267;DHT22;10791;53.108;18.326;2023-11-19T17:35:02;1.20;99.90
21267;DHT22;10791;53.108;18.326;2023-11-19T17:40:07;1.10;99.90
21267;DHT22;10791;53.108;18.326;2023-11-19T17:45:12;1.10;99.90
21267;DHT22;10791;53.108;18.326;2023-11-19T17:50:18;1.10;99.90
21267;DHT22;10791;53.108;18.326;2023-11-19T17:55:26;1.20;99.90
21267;DHT22;10791;53.108;18.326;2023-11-19T18:00:31;1.10;99.90
21267;DHT22;10791;53.108;18.326;2023-11-19T18:05:35;1.00;99.90
21267;DHT22;10791;53.108;18.326;2023-11-19T18:10:38;1.10;99.90
21267;DHT22;10791;53.108;18.326;2023-11-19T18:15:43;1.10;99.90
21267;DHT22;10791;53.108;18.326;2023-11-19T18:20:47;1.10;99.90
21267;DHT22;10791;53.108;18.326;2023-11-19T18:25:51;1.10;99.90
21267;DHT22;10791;53.108;18.326;2023-11-19T18:30:55;1.00;99.90
21267;DHT22;10791;53.108;18.326;2023-11-19T18:36:02;1.00;99.90
21267;DHT22;10791;53.108;18.326;2023-11-19T18:41:07;1.00;99.90
21267;DHT22;10791;53.108;18.326;2023-11-19T18:46:12;1.00;99.90
21267;DHT22;10791;53.108;18.326;2023-11-19T18:51:16;1.00;99.90
21267;DHT22;10791;53.108;18.326;2023-11-19T18:56:20;1.00;99.90
21267;DHT22;10791;53.108;18.326;2023-11-19T19:01:25;1.00;99.90
21267;DHT22;10791;53.108;18.326;2023-11-19T19:06:33;1.00;99.90
21267;DHT22;10791;53.108;18.326;2023-11-19T19:11:37;1.00;99.90
21267;DHT22;10791;53.108;18.326;2023-11-19T19:16:40;1.10;99.90
21267;DHT22;10791;53.108;18.326;2023-11-19T19:21:44;1.10;99.90
21267;DHT22;10791;53.108;18.326;2023-11-19T19:26:48;1.10;99.90
21267;DHT22;10791;53.108;18.326;2023-11-19T19:31:52;1.10;99.90
21267;DHT22;10791;53.108;18.326;2023-11-19T19:36:55;1.10;99.90
21267;DHT22;10791;53.108;18.326;2023-11-19T19:42:00;1.10;99.90
21267;DHT22;10791;53.108;18.326;2023-11-19T19:47:06;1.10;99.90
21267;DHT22;10791;53.108;18.326;2023-11-19T19:52:11;1.10;99.90
21267;DHT22;10791;53.108;18.326;2023-11-19T19:57:15;1.10;99.90
21267;DHT22;10791;53.108;18.326;2023-11-19T20:02:19;1.10;99.90
21267;DHT22;10791;53.108;18.326;2023-11-19T20:07:22;1.10;99.90
21267;DHT22;10791;53.108;18.326;2023-11-19T20:12:26;1.10;99.90
21267;DHT22;10791;53.108;18.326;2023-11-19T20:17:34;1.10;99.90
21267;DHT22;10791;53.108;18.326;2023-11-19T20:22:38;1.20;99.90
21267;DHT22;10791;53.108;18.326;2023-11-19T20:27:43;1.10;99.90
21267;DHT22;10791;53.108;18.326;2023-11-19T20:32:47;1.10;99.90
21267;DHT22;10791;53.108;18.326;2023-11-19T20:37:51;1.10;99.90
21267;DHT22;10791;53.108;18.326;2023-11-19T20:42:55;1.20;99.90
21267;DHT22;10791;53.108;18.326;2023-11-19T20:47:59;1.30;99.90
21267;DHT22;10791;53.108;18.326;2023-11-19T20:53:03;1.30;99.90
21267;DHT22;10791;53.108;18.326;2023-11-19T20:58:07;1.30;99.90
21267;DHT22;10791;53.108;18.326;2023-11-19T21:03:14;1.40;99.90
21267;DHT22;10791;53.108;18.326;2023-11-19T21:08:19;1.30;99.90
21267;DHT22;10791;53.108;18.326;2023-11-19T21:13:23;1.30;99.90
21267;DHT22;10791;53.108;18.326;2023-11-19T21:18:27;1.30;99.90
21267;DHT22;10791;53.108;18.326;2023-11-19T21:23:33;1.40;99.90
21267;DHT22;10791;53.108;18.326;2023-11-19T21:28:37;1.50;99.90
21267;DHT22;10791;53.108;18.326;2023-11-19T21:33:41;1.60;99.90
21267;DHT22;10791;53.108;18.326;2023-11-19T21:38:45;1.60;99.90
21267;DHT22;10791;53.108;18.326;2023-11-19T21:43:54;1.50;99.90
21267;DHT22;10791;53.108;18.326;2023-11-19T21:49:01;1.40;99.90
21267;DHT22;10791;53.108;18.326;2023-11-19T21:54:05;1.50;99.90
21267;DHT22;10791;53.108;18.326;2023-11-19T21:59:08;1.50;99.90
21267;DHT22;10791;53.108;18.326;2023-11-19T22:04:12;1.60;99.90
21267;DHT22;10791;53.108;18.326;2023-11-19T22:09:15;1.50;99.90
21267;DHT22;10791;53.108;18.326;2023-11-19T22:14:19;1.50;99.90
21267;DHT22;10791;53.108;18.326;2023-11-19T22:19:24;1.50;99.90
21267;DHT22;10791;53.108;18.326;2023-11-19T22:24:28;1.50;99.90
21267;DHT22;10791;53.108;18.326;2023-11-19T22:29:32;1.50;99.90
21267;DHT22;10791;53.108;18.326;2023-11-19T22:34:36;1.50;99.90
21267;DHT22;10791;53.108;18.326;2023-11-19T22:39:39;1.50;99.90
21267;DHT22;10791;53.108;18.326;2023-11-19T22:44:43;1.60;99.90
21267;DHT22;10791;53.108;18.326;2023-11-19T22:49:46;1.50;99.90
21267;DHT22;10791;53.108;18.326;2023-11-19T22:54:49;1.40;99.90
21267;DHT22;10791;53.108;18.326;2023-11-19T22:59:53;1.40;99.90
21267;DHT22;10791;53.108;18.326;2023-11-19T23:04:56;1.50;99.90
21267;DHT22;10791;53.108;18.326;2023-11-19T23:09:59;1.60;99.90
21267;DHT22;10791;53.108;18.326;2023-11-19T23:15:05;1.50;99.90
21267;DHT22;10791;53.108;18.326;2023-11-19T23:20:11;1.50;99.90
21267;DHT22;10791;53.108;18.326;2023-11-19T23:25:16;1.60;99.90
21267;DHT22;10791;53.108;18.326;2023-11-19T23:30:19;1.60;99.90
21267;DHT22;10791;53.108;18.326;2023-11-19T23:35:22;1.50;99.90
21267;DHT22;10791;53.108;18.326;2023-11-19T23:40:26;1.70;99.90
21267;DHT22;10791;53.108;18.326;2023-11-19T23:45:30;1.60;99.90
21267;DHT22;10791;53.108;18.326;2023-11-19T23:50:34;1.50;99.90
21267;DHT22;10791;53.108;18.326;2023-11-19T23:55:38;1.70;99.90
